sensor_id;sensor_type;location;lat;lon;timestamp;temperature;humidity
21807;DHT22;11065;50.786;7.840;2023-03-12T00:00:21;3.40;45.50
21807;DHT22;11065;50.786;7.840;2023-03-12T00:02:49;3.50;45.50
21807;DHT22;11065;50.786;7.840;2023-03-12T00:05:17;3.50;45.50
21807;DHT22;11065;50.786;7.840;2023-03-12T00:07:45;3.50;45.60
21807;DHT22;11065;50.786;7.840;2023-03-12T00:10:14;3.50;45.60
21807;DHT22;11065;50.786;7.840;2023-03-12T00:12:43;3.50;45.60
21807;DHT22;11065;50.786;7.840;2023-03-12T00:15:11;3.50;45.70
21807;DHT22;11065;50.786;7.840;2023-03-12T00:17:39;3.50;45.60
21807;DHT22;11065;50.786;7.840;2023-03-12T00:20:08;3.50;45.70
21807;DHT22;11065;50.786;7.840;2023-03-12T00:22:38;3.60;45.80
21807;DHT22;11065;50.786;7.840;2023-03-12T00:25:10;3.60;45.80
21807;DHT22;11065;50.786;7.840;2023-03-12T00:27:41;3.60;45.90
21807;DHT22;11065;50.786;7.840;2023-03-12T00:30:10;3.60;45.90
21807;DHT22;11065;50.786;7.840;2023-03-12T00:32:39;3.60;45.80
21807;DHT22;11065;50.786;7.840;2023-03-12T00:35:08;3.60;45.80
21807;DHT22;11065;50.786;7.840;2023-03-12T00:37:36;3.60;45.80
21807;DHT22;11065;50.786;7.840;2023-03-12T00:40:05;3.60;45.90
21807;DHT22;11065;50.786;7.840;2023-03-12T00:42:34;3.60;45.90
21807;DHT22;11065;50.786;7.840;2023-03-12T00:45:05;3.60;45.90
21807;DHT22;11065;50.786;7.840;2023-03-12T00:47:33;3.60;46.00
21807;DHT22;11065;50.786;7.840;2023-03-12T00:50:01;3.60;45.90
21807;DHT22;11065;50.786;7.840;2023-03-12T00:52:29;3.60;46.00
21807;DHT22;11065;50.786;7.840;2023-03-12T00:54:57;3.60;45.90
21807;DHT22;11065;50.786;7.840;2023-03-12T00:57:26;3.60;46.10
21807;DHT22;11065;50.786;7.840;2023-03-12T00:59:54;3.60;46.10
21807;DHT22;11065;50.786;7.840;2023-03-12T01:02:24;3.60;46.10
21807;DHT22;11065;50.786;7.840;2023-03-12T01:04:52;3.60;46.10
21807;DHT22;11065;50.786;7.840;2023-03-12T01:07:20;3.60;46.10
21807;DHT22;11065;50.786;7.840;2023-03-12T01:09:48;3.60;46.20
21807;DHT22;11065;50.786;7.840;2023-03-12T01:12:16;3.60;46.20
21807;DHT22;11065;50.786;7.840;2023-03-12T01:14:44;3.60;46.20
21807;DHT22;11065;50.786;7.840;2023-03-12T01:17:12;3.60;46.20
21807;DHT22;11065;50.786;7.840;2023-03-12T01:19:42;3.60;46.40
21807;DHT22;11065;50.786;7.840;2023-03-12T01:22:10;3.70;46.30
21807;DHT22;11065;50.786;7.840;2023-03-12T01:24:38;3.70;46.30
21807;DHT22;11065;50.786;7.840;2023-03-12T01:27:06;3.60;46.20
21807;DHT22;11065;50.786;7.840;2023-03-12T01:29:34;3.60;46.20
21807;DHT22;11065;50.786;7.840;2023-03-12T01:32:02;3.60;46.20
21807;DHT22;11065;50.786;7.840;2023-03-12T01:34:31;3.60;46.30
21807;DHT22;11065;50.786;7.840;2023-03-12T01:37:00;3.70;46.80
21807;DHT22;11065;50.786;7.840;2023-03-12T01:39:29;3.60;46.40
21807;DHT22;11065;50.786;7.840;2023-03-12T01:41:57;3.70;46.40
21807;DHT22;11065;50.786;7.840;2023-03-12T01:44:25;3.70;46.40
21807;DHT22;11065;50.786;7.840;2023-03-12T01:46:53;3.70;46.50
21807;DHT22;11065;50.786;7.840;2023-03-12T01:49:25;3.70;46.50
21807;DHT22;11065;50.786;7.840;2023-03-12T01:51:57;3.70;46.50
21807;DHT22;11065;50.786;7.840;2023-03-12T01:54:34;3.70;46.50
21807;DHT22;11065;50.786;7.840;2023-03-12T01:57:07;3.70;46.50
21807;DHT22;11065;50.786;7.840;2023-03-12T01:59:39;3.70;46.50
21807;DHT22;11065;50.786;7.840;2023-03-12T02:02:09;3.80;46.50
21807;DHT22;11065;50.786;7.840;2023-03-12T02:04:37;3.80;46.50
21807;DHT22;11065;50.786;7.840;2023-03-12T02:07:07;3.80;46.50
21807;DHT22;11065;50.786;7.840;2023-03-12T02:09:40;3.80;46.50
21807;DHT22;11065;50.786;7.840;2023-03-12T02:12:09;3.80;46.60
21807;DHT22;11065;50.786;7.840;2023-03-12T02:14:38;3.80;46.60
21807;DHT22;11065;50.786;7.840;2023-03-12T02:17:06;3.80;46.60
21807;DHT22;11065;50.786;7.840;2023-03-12T02:19:41;3.90;46.70
21807;DHT22;11065;50.786;7.840;2023-03-12T02:22:11;3.90;46.70
21807;DHT22;11065;50.786;7.840;2023-03-12T02:24:45;3.90;46.60
21807;DHT22;11065;50.786;7.840;2023-03-12T02:27:17;3.90;47.10
21807;DHT22;11065;50.786;7.840;2023-03-12T02:29:46;3.90;46.50
21807;DHT22;11065;50.786;7.840;2023-03-12T02:32:19;3.90;46.60
21807;DHT22;11065;50.786;7.840;2023-03-12T02:34:49;3.90;46.60
21807;DHT22;11065;50.786;7.840;2023-03-12T02:37:18;3.90;46.60
21807;DHT22;11065;50.786;7.840;2023-03-12T02:39:52;3.90;46.60
21807;DHT22;11065;50.786;7.840;2023-03-12T02:42:24;3.90;46.70
21807;DHT22;11065;50.786;7.840;2023-03-12T02:44:53;4.00;46.70
21807;DHT22;11065;50.786;7.840;2023-03-12T02:47:21;4.00;46.70
21807;DHT22;11065;50.786;7.840;2023-03-12T02:49:49;4.00;46.70
21807;DHT22;11065;50.786;7.840;2023-03-12T02:52:17;4.00;46.70
21807;DHT22;11065;50.786;7.840;2023-03-12T02:54:45;3.90;46.60
21807;DHT22;11065;50.786;7.840;2023-03-12T02:57:13;4.00;46.70
21807;DHT22;11065;50.786;7.840;2023-03-12T02:59:43;3.90;46.70
21807;DHT22;11065;50.786;7.840;2023-03-12T03:02:11;3.90;46.80
21807;DHT22;11065;50.786;7.840;2023-03-12T03:04:40;3.90;46.80
21807;DHT22;11065;50.786;7.840;2023-03-12T03:07:08;3.90;46.70
21807;DHT22;11065;50.786;7.840;2023-03-12T03:09:36;3.90;46.80
21807;DHT22;11065;50.786;7.840;2023-03-12T03:12:04;3.80;46.80
21807;DHT22;11065;50.786;7.840;2023-03-12T03:14:34;3.90;47.00
21807;DHT22;11065;50.786;7.840;2023-03-12T03:17:03;3.90;47.00
21807;DHT22;11065;50.786;7.840;2023-03-12T03:19:31;3.90;47.00
21807;DHT22;11065;50.786;7.840;2023-03-12T03:21:59;3.90;47.10
21807;DHT22;11065;50.786;7.840;2023-03-12T03:24:28;3.90;47.10
21807;DHT22;11065;50.786;7.840;2023-03-12T03:26:56;3.90;47.10
21807;DHT22;11065;50.786;7.840;2023-03-12T03:29:24;4.00;47.20
21807;DHT22;11065;50.786;7.840;2023-03-12T03:31:53;4.00;47.20
21807;DHT22;11065;50.786;7.840;2023-03-12T03:34:22;4.00;47.30
21807;DHT22;11065;50.786;7.840;2023-03-12T03:36:51;4.00;47.20
21807;DHT22;11065;50.786;7.840;2023-03-12T03:39:19;4.00;47.20
21807;DHT22;11065;50.786;7.840;2023-03-12T03:41:47;4.00;47.20
21807;DHT22;11065;50.786;7.840;2023-03-12T03:44:20;4.00;47.20
21807;DHT22;11065;50.786;7.840;2023-03-12T03:46:50;4.00;47.30
21807;DHT22;11065;50.786;7.840;2023-03-12T03:49:19;4.00;47.30
21807;DHT22;11065;50.786;7.840;2023-03-12T03:51:49;4.00;47.40
21807;DHT22;11065;50.786;7.840;2023-03-12T03:54:25;4.10;47.50
21807;DHT22;11065;50.786;7.840;2023-03-12T03:56:55;4.10;47.40
21807;DHT22;11065;50.786;7.840;2023-03-12T03:59:23;4.10;47.40
21807;DHT22;11065;50.786;7.840;2023-03-12T04:01:51;4.10;47.40
21807;DHT22;11065;50.786;7.840;2023-03-12T04:04:20;4.10;47.50
21807;DHT22;11065;50.786;7.840;2023-03-12T04:06:49;4.20;47.60
21807;DHT22;11065;50.786;7.840;2023-03-12T04:09:18;4.20;47.70
21807;DHT22;11065;50.786;7.840;2023-03-12T04:11:46;4.10;47.50
21807;DHT22;11065;50.786;7.840;2023-03-12T04:14:14;4.20;47.50
21807;DHT22;11065;50.786;7.840;2023-03-12T04:16:44;4.20;47.50
21807;DHT22;11065;50.786;7.840;2023-03-12T04:19:12;4.20;47.40
21807;DHT22;11065;50.786;7.840;2023-03-12T04:21:40;4.20;47.50
21807;DHT22;11065;50.786;7.840;2023-03-12T04:24:12;4.20;47.50
21807;DHT22;11065;50.786;7.840;2023-03-12T04:26:41;4.20;47.50
21807;DHT22;11065;50.786;7.840;2023-03-12T04:29:10;4.20;47.50
21807;DHT22;11065;50.786;7.840;2023-03-12T04:31:39;4.20;47.50
21807;DHT22;11065;50.786;7.840;2023-03-12T04:34:07;4.20;47.50
21807;DHT22;11065;50.786;7.840;2023-03-12T04:36:35;4.20;47.50
21807;DHT22;11065;50.786;7.840;2023-03-12T04:39:03;4.20;47.50
21807;DHT22;11065;50.786;7.840;2023-03-12T04:41:34;4.20;47.50
21807;DHT22;11065;50.786;7.840;2023-03-12T04:44:07;4.20;47.50
21807;DHT22;11065;50.786;7.840;2023-03-12T04:46:39;4.20;47.50
21807;DHT22;11065;50.786;7.840;2023-03-12T04:49:09;4.30;47.60
21807;DHT22;11065;50.786;7.840;2023-03-12T04:51:39;4.20;47.60
21807;DHT22;11065;50.786;7.840;2023-03-12T04:54:07;4.20;47.60
21807;DHT22;11065;50.786;7.840;2023-03-12T04:56:38;4.20;47.70
21807;DHT22;11065;50.786;7.840;2023-03-12T04:59:06;4.20;47.70
21807;DHT22;11065;50.786;7.840;2023-03-12T05:01:35;4.30;47.80
21807;DHT22;11065;50.786;7.840;2023-03-12T05:04:10;4.30;47.80
21807;DHT22;11065;50.786;7.840;2023-03-12T05:06:38;4.30;47.80
21807;DHT22;11065;50.786;7.840;2023-03-12T05:09:06;4.30;47.80
21807;DHT22;11065;50.786;7.840;2023-03-12T05:11:35;4.30;47.90
21807;DHT22;11065;50.786;7.840;2023-03-12T05:14:09;4.40;48.20
21807;DHT22;11065;50.786;7.840;2023-03-12T05:16:39;4.40;47.90
21807;DHT22;11065;50.786;7.840;2023-03-12T05:19:07;4.40;47.80
21807;DHT22;11065;50.786;7.840;2023-03-12T05:21:35;4.40;47.80
21807;DHT22;11065;50.786;7.840;2023-03-12T05:24:05;4.40;47.90
21807;DHT22;11065;50.786;7.840;2023-03-12T05:26:33;4.40;47.80
21807;DHT22;11065;50.786;7.840;2023-03-12T05:29:21;4.40;47.80
21807;DHT22;11065;50.786;7.840;2023-03-12T05:31:51;4.40;47.80
21807;DHT22;11065;50.786;7.840;2023-03-12T05:34:19;4.50;47.90
21807;DHT22;11065;50.786;7.840;2023-03-12T05:36:47;4.50;47.90
21807;DHT22;11065;50.786;7.840;2023-03-12T05:39:20;4.30;47.80
21807;DHT22;11065;50.786;7.840;2023-03-12T05:41:48;4.50;47.90
21807;DHT22;11065;50.786;7.840;2023-03-12T05:44:18;4.50;47.90
21807;DHT22;11065;50.786;7.840;2023-03-12T05:46:52;4.60;48.00
21807;DHT22;11065;50.786;7.840;2023-03-12T05:49:25;4.60;48.00
21807;DHT22;11065;50.786;7.840;2023-03-12T05:51:54;4.60;47.90
21807;DHT22;11065;50.786;7.840;2023-03-12T05:54:22;4.70;47.90
21807;DHT22;11065;50.786;7.840;2023-03-12T05:56:51;4.70;48.00
21807;DHT22;11065;50.786;7.840;2023-03-12T05:59:23;4.70;48.10
21807;DHT22;11065;50.786;7.840;2023-03-12T06:01:54;4.70;48.10
21807;DHT22;11065;50.786;7.840;2023-03-12T06:04:22;4.80;48.10
21807;DHT22;11065;50.786;7.840;2023-03-12T06:06:52;4.80;48.00
21807;DHT22;11065;50.786;7.840;2023-03-12T06:09:20;4.80;48.00
21807;DHT22;11065;50.786;7.840;2023-03-12T06:11:48;4.80;48.10
21807;DHT22;11065;50.786;7.840;2023-03-12T06:14:16;4.90;48.20
21807;DHT22;11065;50.786;7.840;2023-03-12T06:16:45;5.00;48.30
21807;DHT22;11065;50.786;7.840;2023-03-12T06:19:14;5.00;48.80
21807;DHT22;11065;50.786;7.840;2023-03-12T06:21:46;5.00;48.40
21807;DHT22;11065;50.786;7.840;2023-03-12T06:24:14;5.10;48.40
21807;DHT22;11065;50.786;7.840;2023-03-12T06:26:46;5.10;48.40
21807;DHT22;11065;50.786;7.840;2023-03-12T06:29:14;5.20;49.00
21807;DHT22;11065;50.786;7.840;2023-03-12T06:31:42;5.20;48.50
21807;DHT22;11065;50.786;7.840;2023-03-12T06:34:11;5.20;48.40
21807;DHT22;11065;50.786;7.840;2023-03-12T06:36:40;5.30;48.60
21807;DHT22;11065;50.786;7.840;2023-03-12T06:39:09;5.30;48.60
21807;DHT22;11065;50.786;7.840;2023-03-12T06:41:37;5.30;48.60
21807;DHT22;11065;50.786;7.840;2023-03-12T06:44:06;5.30;48.60
21807;DHT22;11065;50.786;7.840;2023-03-12T06:46:34;5.30;48.60
21807;DHT22;11065;50.786;7.840;2023-03-12T06:49:02;5.30;48.70
21807;DHT22;11065;50.786;7.840;2023-03-12T06:51:31;5.30;48.80
21807;DHT22;11065;50.786;7.840;2023-03-12T06:54:00;5.40;48.80
21807;DHT22;11065;50.786;7.840;2023-03-12T06:56:29;5.40;49.00
21807;DHT22;11065;50.786;7.840;2023-03-12T06:58:57;5.40;48.80
21807;DHT22;11065;50.786;7.840;2023-03-12T07:01:25;5.30;48.80
21807;DHT22;11065;50.786;7.840;2023-03-12T07:03:54;5.40;49.00
21807;DHT22;11065;50.786;7.840;2023-03-12T07:06:23;5.40;49.10
21807;DHT22;11065;50.786;7.840;2023-03-12T07:08:51;5.40;49.20
21807;DHT22;11065;50.786;7.840;2023-03-12T07:11:21;5.40;49.30
21807;DHT22;11065;50.786;7.840;2023-03-12T07:13:49;5.50;49.40
21807;DHT22;11065;50.786;7.840;2023-03-12T07:16:17;5.50;49.20
21807;DHT22;11065;50.786;7.840;2023-03-12T07:18:45;5.50;49.20
21807;DHT22;11065;50.786;7.840;2023-03-12T07:21:13;5.50;49.10
21807;DHT22;11065;50.786;7.840;2023-03-12T07:23:42;5.50;49.10
21807;DHT22;11065;50.786;7.840;2023-03-12T07:26:10;5.50;49.20
21807;DHT22;11065;50.786;7.840;2023-03-12T07:28:40;5.50;49.20
21807;DHT22;11065;50.786;7.840;2023-03-12T07:31:08;5.50;49.30
21807;DHT22;11065;50.786;7.840;2023-03-12T07:33:36;5.50;49.30
21807;DHT22;11065;50.786;7.840;2023-03-12T07:36:05;5.50;49.30
21807;DHT22;11065;50.786;7.840;2023-03-12T07:38:34;5.50;49.50
21807;DHT22;11065;50.786;7.840;2023-03-12T07:41:02;5.50;49.40
21807;DHT22;11065;50.786;7.840;2023-03-12T07:43:30;5.60;49.60
21807;DHT22;11065;50.786;7.840;2023-03-12T07:46:00;5.60;49.50
21807;DHT22;11065;50.786;7.840;2023-03-12T07:48:28;5.60;49.40
21807;DHT22;11065;50.786;7.840;2023-03-12T07:50:57;5.70;49.50
21807;DHT22;11065;50.786;7.840;2023-03-12T07:53:25;5.70;49.50
21807;DHT22;11065;50.786;7.840;2023-03-12T07:55:53;5.70;49.50
21807;DHT22;11065;50.786;7.840;2023-03-12T07:58:22;5.80;49.60
21807;DHT22;11065;50.786;7.840;2023-03-12T08:00:50;5.80;49.60
21807;DHT22;11065;50.786;7.840;2023-03-12T08:03:20;5.90;49.50
21807;DHT22;11065;50.786;7.840;2023-03-12T08:05:57;5.90;49.60
21807;DHT22;11065;50.786;7.840;2023-03-12T08:08:26;6.00;49.80
21807;DHT22;11065;50.786;7.840;2023-03-12T08:10:54;6.00;49.60
21807;DHT22;11065;50.786;7.840;2023-03-12T08:13:23;6.00;49.60
21807;DHT22;11065;50.786;7.840;2023-03-12T08:15:52;6.10;49.70
21807;DHT22;11065;50.786;7.840;2023-03-12T08:18:22;6.10;49.70
21807;DHT22;11065;50.786;7.840;2023-03-12T08:20:51;6.10;49.70
21807;DHT22;11065;50.786;7.840;2023-03-12T08:23:20;6.20;49.70
21807;DHT22;11065;50.786;7.840;2023-03-12T08:25:49;6.20;49.80
21807;DHT22;11065;50.786;7.840;2023-03-12T08:28:19;6.20;49.80
21807;DHT22;11065;50.786;7.840;2023-03-12T08:30:48;6.30;49.80
21807;DHT22;11065;50.786;7.840;2023-03-12T08:33:16;6.30;49.80
21807;DHT22;11065;50.786;7.840;2023-03-12T08:35:46;6.40;50.00
21807;DHT22;11065;50.786;7.840;2023-03-12T08:38:14;6.40;49.90
21807;DHT22;11065;50.786;7.840;2023-03-12T08:40:42;6.40;49.80
21807;DHT22;11065;50.786;7.840;2023-03-12T08:43:11;6.50;49.70
21807;DHT22;11065;50.786;7.840;2023-03-12T08:45:39;6.50;49.70
21807;DHT22;11065;50.786;7.840;2023-03-12T08:48:07;6.60;49.90
21807;DHT22;11065;50.786;7.840;2023-03-12T08:50:35;6.60;49.90
21807;DHT22;11065;50.786;7.840;2023-03-12T08:53:04;6.70;50.00
21807;DHT22;11065;50.786;7.840;2023-03-12T08:55:32;6.70;50.00
21807;DHT22;11065;50.786;7.840;2023-03-12T08:58:01;6.70;49.90
21807;DHT22;11065;50.786;7.840;2023-03-12T09:00:29;6.70;49.90
21807;DHT22;11065;50.786;7.840;2023-03-12T09:02:57;6.80;50.00
21807;DHT22;11065;50.786;7.840;2023-03-12T09:05:26;6.80;50.00
21807;DHT22;11065;50.786;7.840;2023-03-12T09:07:56;6.90;50.00
21807;DHT22;11065;50.786;7.840;2023-03-12T09:10:25;6.90;50.00
21807;DHT22;11065;50.786;7.840;2023-03-12T09:12:56;6.90;50.00
21807;DHT22;11065;50.786;7.840;2023-03-12T09:15:25;7.00;50.10
21807;DHT22;11065;50.786;7.840;2023-03-12T09:17:53;7.00;50.20
21807;DHT22;11065;50.786;7.840;2023-03-12T09:20:23;7.00;50.20
21807;DHT22;11065;50.786;7.840;2023-03-12T09:22:51;7.10;50.20
21807;DHT22;11065;50.786;7.840;2023-03-12T09:25:19;7.10;50.30
21807;DHT22;11065;50.786;7.840;2023-03-12T09:27:50;7.10;50.40
21807;DHT22;11065;50.786;7.840;2023-03-12T09:30:19;7.20;50.50
21807;DHT22;11065;50.786;7.840;2023-03-12T09:32:50;7.20;50.50
21807;DHT22;11065;50.786;7.840;2023-03-12T09:35:19;7.30;50.60
21807;DHT22;11065;50.786;7.840;2023-03-12T09:37:47;7.30;50.60
21807;DHT22;11065;50.786;7.840;2023-03-12T09:40:19;7.40;50.60
21807;DHT22;11065;50.786;7.840;2023-03-12T09:42:51;7.40;50.80
21807;DHT22;11065;50.786;7.840;2023-03-12T09:45:22;7.50;50.90
21807;DHT22;11065;50.786;7.840;2023-03-12T09:47:53;7.50;50.90
21807;DHT22;11065;50.786;7.840;2023-03-12T09:50:27;7.60;50.90
21807;DHT22;11065;50.786;7.840;2023-03-12T09:52:58;7.60;51.00
21807;DHT22;11065;50.786;7.840;2023-03-12T09:55:32;7.60;51.10
21807;DHT22;11065;50.786;7.840;2023-03-12T09:58:03;7.70;50.90
21807;DHT22;11065;50.786;7.840;2023-03-12T10:00:34;7.70;50.80
21807;DHT22;11065;50.786;7.840;2023-03-12T10:03:19;7.70;50.70
21807;DHT22;11065;50.786;7.840;2023-03-12T10:06:05;7.70;51.10
21807;DHT22;11065;50.786;7.840;2023-03-12T10:08:46;7.80;51.10
21807;DHT22;11065;50.786;7.840;2023-03-12T10:11:26;7.80;51.20
21807;DHT22;11065;50.786;7.840;2023-03-12T10:14:13;7.80;51.30
21807;DHT22;11065;50.786;7.840;2023-03-12T10:16:58;7.80;51.50
21807;DHT22;11065;50.786;7.840;2023-03-12T10:19:38;7.90;51.20
21807;DHT22;11065;50.786;7.840;2023-03-12T10:22:16;7.90;51.30
21807;DHT22;11065;50.786;7.840;2023-03-12T10:24:55;7.90;51.20
21807;DHT22;11065;50.786;7.840;2023-03-12T10:27:28;7.90;51.40
21807;DHT22;11065;50.786;7.840;2023-03-12T10:29:58;8.00;51.40
21807;DHT22;11065;50.786;7.840;2023-03-12T10:32:35;8.00;51.40
21807;DHT22;11065;50.786;7.840;2023-03-12T10:35:14;8.00;51.60
21807;DHT22;11065;50.786;7.840;2023-03-12T10:37:45;8.10;51.70
21807;DHT22;11065;50.786;7.840;2023-03-12T10:40:16;8.20;51.60
21807;DHT22;11065;50.786;7.840;2023-03-12T10:42:44;8.20;51.70
21807;DHT22;11065;50.786;7.840;2023-03-12T10:45:22;8.20;51.60
21807;DHT22;11065;50.786;7.840;2023-03-12T10:47:54;8.30;51.80
21807;DHT22;11065;50.786;7.840;2023-03-12T10:50:26;8.40;51.80
21807;DHT22;11065;50.786;7.840;2023-03-12T10:53:16;8.40;51.80
21807;DHT22;11065;50.786;7.840;2023-03-12T10:56:01;8.50;52.10
21807;DHT22;11065;50.786;7.840;2023-03-12T10:58:34;8.50;52.00
21807;DHT22;11065;50.786;7.840;2023-03-12T11:01:06;8.60;51.90
21807;DHT22;11065;50.786;7.840;2023-03-12T11:03:39;8.60;51.80
21807;DHT22;11065;50.786;7.840;2023-03-12T11:06:08;8.70;51.80
21807;DHT22;11065;50.786;7.840;2023-03-12T11:09:02;8.70;51.90
21807;DHT22;11065;50.786;7.840;2023-03-12T11:11:43;8.80;52.20
21807;DHT22;11065;50.786;7.840;2023-03-12T11:14:16;8.80;51.90
21807;DHT22;11065;50.786;7.840;2023-03-12T11:16:46;8.90;52.00
21807;DHT22;11065;50.786;7.840;2023-03-12T11:19:25;9.00;52.10
21807;DHT22;11065;50.786;7.840;2023-03-12T11:21:55;9.00;52.30
21807;DHT22;11065;50.786;7.840;2023-03-12T11:24:24;9.10;52.20
21807;DHT22;11065;50.786;7.840;2023-03-12T11:26:57;9.10;52.20
21807;DHT22;11065;50.786;7.840;2023-03-12T11:29:28;9.10;52.30
21807;DHT22;11065;50.786;7.840;2023-03-12T11:32:05;9.10;52.20
21807;DHT22;11065;50.786;7.840;2023-03-12T11:34:37;9.20;52.40
21807;DHT22;11065;50.786;7.840;2023-03-12T11:37:11;9.20;52.40
21807;DHT22;11065;50.786;7.840;2023-03-12T11:39:55;9.30;52.70
21807;DHT22;11065;50.786;7.840;2023-03-12T11:42:35;9.30;52.60
21807;DHT22;11065;50.786;7.840;2023-03-12T11:45:09;9.40;52.50
21807;DHT22;11065;50.786;7.840;2023-03-12T11:47:52;9.40;52.50
21807;DHT22;11065;50.786;7.840;2023-03-12T11:50:31;9.40;52.80
21807;DHT22;11065;50.786;7.840;2023-03-12T11:53:22;9.50;52.80
21807;DHT22;11065;50.786;7.840;2023-03-12T11:56:05;9.50;53.30
21807;DHT22;11065;50.786;7.840;2023-03-12T11:58:48;9.60;53.10
21807;DHT22;11065;50.786;7.840;2023-03-12T12:01:26;9.70;53.30
21807;DHT22;11065;50.786;7.840;2023-03-12T12:04:31;9.70;53.30
21807;DHT22;11065;50.786;7.840;2023-03-12T12:07:07;9.80;53.70
21807;DHT22;11065;50.786;7.840;2023-03-12T12:09:43;9.90;53.20
21807;DHT22;11065;50.786;7.840;2023-03-12T12:12:24;9.90;53.20
21807;DHT22;11065;50.786;7.840;2023-03-12T12:15:02;10.00;53.30
21807;DHT22;11065;50.786;7.840;2023-03-12T12:17:46;10.10;53.40
21807;DHT22;11065;50.786;7.840;2023-03-12T12:20:28;10.10;53.40
21807;DHT22;11065;50.786;7.840;2023-03-12T12:23:09;10.20;53.50
21807;DHT22;11065;50.786;7.840;2023-03-12T12:26:05;10.20;53.30
21807;DHT22;11065;50.786;7.840;2023-03-12T12:29:01;10.20;53.90
21807;DHT22;11065;50.786;7.840;2023-03-12T12:31:39;10.20;53.90
21807;DHT22;11065;50.786;7.840;2023-03-12T12:34:24;10.20;53.40
21807;DHT22;11065;50.786;7.840;2023-03-12T12:37:12;10.30;53.80
21807;DHT22;11065;50.786;7.840;2023-03-12T12:39:44;10.30;53.90
21807;DHT22;11065;50.786;7.840;2023-03-12T12:42:20;10.30;53.90
21807;DHT22;11065;50.786;7.840;2023-03-12T12:44:51;10.40;54.00
21807;DHT22;11065;50.786;7.840;2023-03-12T12:47:29;10.50;54.30
21807;DHT22;11065;50.786;7.840;2023-03-12T12:50:00;10.50;54.10
21807;DHT22;11065;50.786;7.840;2023-03-12T12:52:31;10.50;54.00
21807;DHT22;11065;50.786;7.840;2023-03-12T12:55:06;10.60;54.70
21807;DHT22;11065;50.786;7.840;2023-03-12T12:57:41;10.70;54.40
21807;DHT22;11065;50.786;7.840;2023-03-12T13:00:28;10.70;54.20
21807;DHT22;11065;50.786;7.840;2023-03-12T13:02:59;10.80;54.40
21807;DHT22;11065;50.786;7.840;2023-03-12T13:05:39;11.00;54.50
21807;DHT22;11065;50.786;7.840;2023-03-12T13:08:35;11.00;54.70
21807;DHT22;11065;50.786;7.840;2023-03-12T13:11:04;11.10;54.50
21807;DHT22;11065;50.786;7.840;2023-03-12T13:13:48;11.20;53.90
21807;DHT22;11065;50.786;7.840;2023-03-12T13:16:26;11.20;53.80
21807;DHT22;11065;50.786;7.840;2023-03-12T13:18:57;11.20;53.80
21807;DHT22;11065;50.786;7.840;2023-03-12T13:21:33;11.20;53.80
21807;DHT22;11065;50.786;7.840;2023-03-12T13:24:14;11.30;53.80
21807;DHT22;11065;50.786;7.840;2023-03-12T13:26:53;11.20;53.80
21807;DHT22;11065;50.786;7.840;2023-03-12T13:29:36;11.20;53.90
21807;DHT22;11065;50.786;7.840;2023-03-12T13:32:08;11.30;54.10
21807;DHT22;11065;50.786;7.840;2023-03-12T13:34:45;11.30;53.80
21807;DHT22;11065;50.786;7.840;2023-03-12T13:43:51;11.20;54.30
21807;DHT22;11065;50.786;7.840;2023-03-12T13:46:27;11.30;54.80
21807;DHT22;11065;50.786;7.840;2023-03-12T13:48:59;11.30;54.00
21807;DHT22;11065;50.786;7.840;2023-03-12T13:51:30;11.30;54.00
21807;DHT22;11065;50.786;7.840;2023-03-12T13:53:59;11.40;54.10
21807;DHT22;11065;50.786;7.840;2023-03-12T13:56:29;11.40;54.30
21807;DHT22;11065;50.786;7.840;2023-03-12T13:59:00;11.50;54.30
21807;DHT22;11065;50.786;7.840;2023-03-12T14:01:34;11.60;54.30
21807;DHT22;11065;50.786;7.840;2023-03-12T14:04:06;11.60;54.10
21807;DHT22;11065;50.786;7.840;2023-03-12T14:06:50;11.60;54.00
21807;DHT22;11065;50.786;7.840;2023-03-12T14:09:27;11.70;54.10
21807;DHT22;11065;50.786;7.840;2023-03-12T14:12:00;11.70;54.00
21807;DHT22;11065;50.786;7.840;2023-03-12T14:14:56;11.70;53.90
21807;DHT22;11065;50.786;7.840;2023-03-12T14:17:28;11.60;53.90
21807;DHT22;11065;50.786;7.840;2023-03-12T14:20:00;11.60;53.90
21807;DHT22;11065;50.786;7.840;2023-03-12T14:22:30;11.70;54.20
21807;DHT22;11065;50.786;7.840;2023-03-12T14:25:03;11.70;54.20
21807;DHT22;11065;50.786;7.840;2023-03-12T14:27:33;11.70;54.30
21807;DHT22;11065;50.786;7.840;2023-03-12T14:30:10;11.80;54.30
21807;DHT22;11065;50.786;7.840;2023-03-12T14:32:41;11.80;54.40
21807;DHT22;11065;50.786;7.840;2023-03-12T14:35:16;11.80;54.20
21807;DHT22;11065;50.786;7.840;2023-03-12T14:37:50;11.90;54.30
21807;DHT22;11065;50.786;7.840;2023-03-12T14:40:22;11.90;54.20
21807;DHT22;11065;50.786;7.840;2023-03-12T14:42:51;11.90;54.10
21807;DHT22;11065;50.786;7.840;2023-03-12T14:45:22;11.90;54.10
21807;DHT22;11065;50.786;7.840;2023-03-12T14:47:54;11.90;54.10
21807;DHT22;11065;50.786;7.840;2023-03-12T14:50:24;11.90;54.20
21807;DHT22;11065;50.786;7.840;2023-03-12T14:52:53;11.90;54.20
21807;DHT22;11065;50.786;7.840;2023-03-12T14:55:23;12.00;54.40
21807;DHT22;11065;50.786;7.840;2023-03-12T14:58:02;12.00;54.50
21807;DHT22;11065;50.786;7.840;2023-03-12T15:00:32;12.00;54.70
21807;DHT22;11065;50.786;7.840;2023-03-12T15:03:03;12.00;54.40
21807;DHT22;11065;50.786;7.840;2023-03-12T15:05:32;12.00;54.50
21807;DHT22;11065;50.786;7.840;2023-03-12T15:08:02;12.10;54.40
21807;DHT22;11065;50.786;7.840;2023-03-12T15:10:31;12.10;54.40
21807;DHT22;11065;50.786;7.840;2023-03-12T15:13:01;12.10;54.30
21807;DHT22;11065;50.786;7.840;2023-03-12T15:15:38;12.20;54.30
21807;DHT22;11065;50.786;7.840;2023-03-12T15:18:11;12.10;54.40
21807;DHT22;11065;50.786;7.840;2023-03-12T15:20:40;12.00;54.20
21807;DHT22;11065;50.786;7.840;2023-03-12T15:23:11;12.00;54.20
21807;DHT22;11065;50.786;7.840;2023-03-12T15:25:40;12.00;54.30
21807;DHT22;11065;50.786;7.840;2023-03-12T15:28:27;11.90;54.40
21807;DHT22;11065;50.786;7.840;2023-03-12T15:31:12;12.00;55.00
21807;DHT22;11065;50.786;7.840;2023-03-12T15:33:42;11.90;55.40
21807;DHT22;11065;50.786;7.840;2023-03-12T15:36:22;11.90;54.80
21807;DHT22;11065;50.786;7.840;2023-03-12T15:38:53;11.90;55.30
21807;DHT22;11065;50.786;7.840;2023-03-12T15:41:25;11.90;55.40
21807;DHT22;11065;50.786;7.840;2023-03-12T15:43:55;11.90;55.50
21807;DHT22;11065;50.786;7.840;2023-03-12T15:46:25;11.90;55.30
21807;DHT22;11065;50.786;7.840;2023-03-12T15:48:55;11.90;55.50
21807;DHT22;11065;50.786;7.840;2023-03-12T15:51:30;12.00;55.60
21807;DHT22;11065;50.786;7.840;2023-03-12T15:54:00;12.00;55.90
21807;DHT22;11065;50.786;7.840;2023-03-12T15:56:31;12.10;55.70
21807;DHT22;11065;50.786;7.840;2023-03-12T15:59:03;12.10;55.60
21807;DHT22;11065;50.786;7.840;2023-03-12T16:01:44;12.20;55.70
21807;DHT22;11065;50.786;7.840;2023-03-12T16:04:12;12.20;56.20
21807;DHT22;11065;50.786;7.840;2023-03-12T16:06:41;12.20;55.60
21807;DHT22;11065;50.786;7.840;2023-03-12T16:09:11;12.30;55.60
21807;DHT22;11065;50.786;7.840;2023-03-12T16:11:42;12.30;55.60
21807;DHT22;11065;50.786;7.840;2023-03-12T16:14:15;12.30;55.90
21807;DHT22;11065;50.786;7.840;2023-03-12T16:16:46;12.30;55.90